createdAt,value
2019-02-05T00:01:19.607Z,101914.43
2019-02-05T00:06:26.332Z,101907.45
2019-02-05T00:11:33.664Z,101894.53
2019-02-05T00:16:42.171Z,101893.51
2019-02-05T00:21:48.213Z,101897.91
2019-02-05T00:26:55.021Z,101893.32
2019-02-05T00:32:02.220Z,101897.74
2019-02-05T00:37:08.987Z,101899.27
2019-02-05T00:42:15.192Z,101904.27
2019-02-05T00:47:21.212Z,101896.70
2019-02-05T00:52:27.571Z,101891.23
2019-02-05T00:57:34.270Z,101901.92
2019-02-05T01:02:42.019Z,101891.98
2019-02-05T01:07:48.334Z,101871.88
2019-02-05T01:12:54.794Z,101867.02
2019-02-05T01:18:00.647Z,101862.55
2019-02-05T01:23:06.310Z,101859.74
2019-02-05T01:28:12.214Z,101852.72
2019-02-05T01:33:18.544Z,101847.30
2019-02-05T01:38:24.714Z,101842.69
2019-02-05T01:43:31.415Z,101840.05
2019-02-05T01:48:37.060Z,101830.16
2019-02-05T01:53:44.584Z,101830.30
2019-02-05T01:58:50.443Z,101822.73
2019-02-05T02:03:56.361Z,101825.17
2019-02-05T02:09:04.856Z,101816.41
2019-02-05T02:14:13.211Z,101813.26
2019-02-05T02:19:19.059Z,101805.18
2019-02-05T02:24:25.361Z,101798.91
2019-02-05T02:29:31.195Z,101824.27
2019-02-05T02:34:37.429Z,101804.38
2019-02-05T02:39:43.471Z,101792.70
2019-02-05T02:44:49.274Z,101801.35
2019-02-05T02:49:55.843Z,101802.39
2019-02-05T02:55:01.628Z,101804.61
2019-02-05T03:00:19.044Z,101812.36
2019-02-05T03:05:25.556Z,101817.68
2019-02-05T03:10:32.470Z,101818.08
2019-02-05T03:15:39.369Z,101819.31
2019-02-05T03:20:45.978Z,101810.09
2019-02-05T03:25:51.835Z,101804.16
2019-02-05T03:30:59.768Z,101800.72
2019-02-05T03:36:06.441Z,101795.98
2019-02-05T03:41:13.555Z,101804.08
2019-02-05T03:46:20.363Z,101794.02
2019-02-05T03:51:31.999Z,101798.14
2019-02-05T03:56:52.612Z,101794.32
2019-02-05T04:02:19.695Z,101790.22
2019-02-05T04:07:43.054Z,101803.23
2019-02-05T04:13:03.854Z,101807.23
2019-02-05T04:18:43.178Z,101801.00
2019-02-05T04:24:04.150Z,101798.14
2019-02-05T04:29:16.743Z,101787.33
2019-02-05T04:34:42.039Z,101785.48
2019-02-05T04:40:09.544Z,101779.55
2019-02-05T04:45:33.792Z,101780.63
2019-02-05T04:50:41.140Z,101777.05
2019-02-05T04:56:20.131Z,101770.59
2019-02-05T05:01:32.335Z,101786.77
2019-02-05T05:06:53.032Z,101779.20
2019-02-05T05:11:58.816Z,101774.16
2019-02-05T05:17:05.263Z,101770.56
2019-02-05T05:22:12.173Z,101770.80
2019-02-05T05:27:20.316Z,101765.28
2019-02-05T05:32:26.307Z,101757.16
2019-02-05T05:37:31.943Z,101753.21
2019-02-05T05:42:38.119Z,101758.97
2019-02-05T05:47:45.606Z,101766.77
2019-02-05T05:52:53.525Z,101762.72
2019-02-05T05:58:00.034Z,101770.46
2019-02-05T06:03:05.858Z,101770.33
2019-02-05T06:08:14.016Z,101773.49
2019-02-05T06:13:19.940Z,101776.70
2019-02-05T06:18:26.158Z,101765.14
2019-02-05T06:23:32.396Z,101775.53
2019-02-05T06:28:40.265Z,101790.13
2019-02-05T06:33:46.109Z,101767.09
2019-02-05T06:38:52.940Z,101778.50
2019-02-05T06:43:59.045Z,101785.36
2019-02-05T06:49:05.533Z,101777.47
2019-02-05T06:54:12.774Z,101783.95
2019-02-05T06:59:19.195Z,101787.27
2019-02-05T07:04:25.806Z,101792.51
2019-02-05T07:09:31.524Z,101809.05
2019-02-05T07:14:37.413Z,101817.27
2019-02-05T07:19:44.282Z,101831.48
2019-02-05T07:24:50.433Z,101837.07
2019-02-05T07:29:56.793Z,101836.83
2019-02-05T07:35:02.835Z,101844.61
2019-02-05T07:40:15.253Z,101842.02
2019-02-05T07:45:22.613Z,101847.64
2019-02-05T07:50:29.144Z,101839.20
2019-02-05T07:55:36.033Z,101846.89
2019-02-05T08:00:41.759Z,101843.82
2019-02-05T08:05:48.266Z,101843.46
2019-02-05T08:10:53.893Z,101860.06
2019-02-05T08:16:01.147Z,101851.44
2019-02-05T08:21:07.268Z,101861.31
2019-02-05T08:26:14.574Z,101846.80
2019-02-05T08:31:21.343Z,101851.98
2019-02-05T08:36:27.449Z,101847.79
2019-02-05T08:41:35.369Z,101865.81
2019-02-05T08:46:43.357Z,101867.09
2019-02-05T08:51:53.842Z,101860.60
2019-02-05T08:57:00.792Z,101880.01
2019-02-05T09:02:08.607Z,101874.88
2019-02-05T09:07:17.507Z,101883.90
2019-02-05T09:12:23.641Z,101877.81
2019-02-05T09:17:31.563Z,101888.30
2019-02-05T09:22:40.124Z,101899.64
2019-02-05T09:27:46.274Z,101899.28
2019-02-05T09:32:54.398Z,101905.70
2019-02-05T09:38:01.731Z,101905.71
2019-02-05T09:43:08.554Z,101908.47
2019-02-05T09:48:15.489Z,101903.77
2019-02-05T09:53:22.617Z,101909.20
2019-02-05T09:58:28.589Z,101911.25
2019-02-05T10:03:35.588Z,101920.38
2019-02-05T10:08:41.522Z,101926.09
2019-02-05T10:13:47.839Z,101935.48
2019-02-05T10:18:54.753Z,101938.01
2019-02-05T10:24:00.868Z,101919.80
2019-02-05T10:29:06.730Z,101935.31
2019-02-05T10:34:15.871Z,101928.64
2019-02-05T10:39:24.620Z,101927.42
2019-02-05T10:44:32.959Z,101933.59
2019-02-05T10:49:39.155Z,101927.67
2019-02-05T10:54:45.313Z,101924.81
2019-02-05T10:59:54.289Z,101921.93
2019-02-05T11:04:58.971Z,101921.31
2019-02-05T11:10:08.422Z,101930.45
2019-02-05T11:15:20.913Z,101919.78
2019-02-05T11:20:28.659Z,101914.60
2019-02-05T11:25:35.972Z,101912.66
2019-02-05T11:30:45.402Z,101908.48
2019-02-05T11:35:51.768Z,101917.02
2019-02-05T11:40:58.030Z,101927.83
2019-02-05T11:46:04.364Z,101924.42
2019-02-05T11:51:10.594Z,101920.30
2019-02-05T11:56:17.639Z,101926.28
2019-02-05T12:01:24.115Z,101924.36
2019-02-05T12:06:30.315Z,101926.46
2019-02-05T12:11:38.183Z,101929.92
2019-02-05T12:16:44.460Z,101933.31
2019-02-05T12:21:51.594Z,101920.98
2019-02-05T12:26:58.221Z,101919.23
2019-02-05T12:32:06.679Z,101923.41
2019-02-05T12:37:12.929Z,101916.46
2019-02-05T12:42:20.131Z,101920.02
2019-02-05T12:47:25.908Z,101908.51
2019-02-05T12:52:34.543Z,101909.92
2019-02-05T12:57:40.782Z,101910.72
2019-02-05T13:02:46.593Z,101920.50
2019-02-05T13:07:52.953Z,101910.64
2019-02-05T13:13:02.526Z,101914.07
2019-02-05T13:18:08.644Z,101911.34
2019-02-05T13:23:15.026Z,101920.11
2019-02-05T13:28:20.730Z,101917.53
2019-02-05T13:33:27.401Z,101930.01
2019-02-05T13:38:33.988Z,101942.40
2019-02-05T13:43:41.485Z,101942.48
2019-02-05T13:48:47.869Z,101933.12
2019-02-05T13:53:54.349Z,101940.92
2019-02-05T13:59:01.756Z,101931.34
2019-02-05T14:04:09.093Z,101944.47
2019-02-05T14:09:15.449Z,101950.73
2019-02-05T14:14:22.028Z,101949.59
2019-02-05T14:19:27.947Z,101956.97
2019-02-05T14:24:34.433Z,101956.81
2019-02-05T14:29:40.808Z,101950.62
2019-02-05T14:34:46.959Z,101957.00
2019-02-05T14:39:53.763Z,101960.02
2019-02-05T14:45:02.219Z,101962.08
2019-02-05T14:50:11.365Z,101972.12
2019-02-05T14:55:17.289Z,101984.47
2019-02-05T15:00:34.741Z,101972.91
2019-02-05T15:05:41.643Z,101986.50
2019-02-05T15:10:49.436Z,101990.12
2019-02-05T15:15:55.884Z,101993.02
2019-02-05T15:21:02.138Z,101998.18
2019-02-05T15:26:08.491Z,101993.27
2019-02-05T15:31:14.700Z,101993.99
2019-02-05T15:36:23.125Z,101991.19
2019-02-05T15:41:30.291Z,101995.06
2019-02-05T15:46:36.813Z,101998.08
2019-02-05T15:51:43.087Z,101992.33
2019-02-05T15:56:54.002Z,101998.94
2019-02-05T16:02:06.351Z,101995.03
2019-02-05T16:07:09.373Z,102002.86
2019-02-05T16:12:15.332Z,102010.05
2019-02-05T16:17:21.060Z,102009.04
2019-02-05T16:22:29.027Z,102006.14
2019-02-05T16:27:35.264Z,102012.44
2019-02-05T16:32:44.371Z,102012.27
2019-02-05T16:38:12.667Z,102011.59
2019-02-05T16:43:20.102Z,102025.31
2019-02-05T16:48:28.394Z,102028.19
2019-02-05T16:53:34.885Z,102017.65
2019-02-05T16:58:41.803Z,102027.91
2019-02-05T17:03:47.779Z,102026.86
2019-02-05T17:08:56.534Z,102030.22
2019-02-05T17:14:03.605Z,102036.64
2019-02-05T17:19:11.034Z,102039.61
2019-02-05T17:24:16.738Z,102042.17
2019-02-05T17:29:22.548Z,102048.50
2019-02-05T17:34:28.276Z,102041.56
2019-02-05T17:39:34.373Z,102052.16
2019-02-05T17:44:41.567Z,102048.08
2019-02-05T17:49:47.899Z,102032.28
2019-02-05T17:54:54.235Z,102047.33
2019-02-05T18:00:00.231Z,102052.75
2019-02-05T18:05:09.395Z,102051.94
2019-02-05T18:10:18.937Z,102062.52
2019-02-05T18:15:27.736Z,102061.08
2019-02-05T18:20:35.498Z,102056.66
2019-02-05T18:25:55.729Z,102056.32
2019-02-05T18:31:03.354Z,102050.69
2019-02-05T18:36:09.987Z,102042.37
2019-02-05T18:41:17.026Z,102048.66
2019-02-05T18:46:23.967Z,102052.16
2019-02-05T18:51:31.372Z,102051.42
2019-02-05T18:56:37.179Z,102061.33
2019-02-05T19:01:43.588Z,102059.70
2019-02-05T19:06:51.015Z,102064.47
2019-02-05T19:11:57.217Z,102064.91
2019-02-05T19:17:03.929Z,102064.23
2019-02-05T19:22:11.202Z,102071.16
2019-02-05T19:27:18.743Z,102067.00
2019-02-05T19:32:26.429Z,102060.96
2019-02-05T19:37:32.885Z,102061.04
2019-02-05T19:42:40.254Z,102067.13
2019-02-05T19:47:46.793Z,102066.63
2019-02-05T19:52:53.252Z,102077.28
2019-02-05T19:58:00.317Z,102070.45
2019-02-05T20:03:08.679Z,102063.65
2019-02-05T20:08:14.821Z,102080.11
2019-02-05T20:13:21.642Z,102075.99
2019-02-05T20:18:28.908Z,102067.91
2019-02-05T20:23:37.347Z,102073.52
2019-02-05T20:28:43.551Z,102070.52
2019-02-05T20:33:51.188Z,102077.45
2019-02-05T20:38:58.091Z,102075.91
2019-02-05T20:44:07.079Z,102078.11
2019-02-05T20:49:12.835Z,102095.85
2019-02-05T20:54:19.294Z,102082.56
2019-02-05T20:59:25.411Z,102084.88
2019-02-05T21:04:35.357Z,102089.48
2019-02-05T21:09:42.221Z,102094.43
2019-02-05T21:14:47.954Z,102100.97
2019-02-05T21:19:54.739Z,102096.23
2019-02-05T21:25:00.600Z,102099.13
2019-02-05T21:30:13.746Z,102100.97
2019-02-05T21:35:21.320Z,102109.92
2019-02-05T21:40:31.345Z,102112.77
2019-02-05T21:45:40.361Z,102117.42
2019-02-05T21:50:47.551Z,102124.22
2019-02-05T21:55:54.039Z,102128.09
2019-02-05T22:01:01.991Z,102124.00
2019-02-05T22:06:08.834Z,102129.05
2019-02-05T22:11:14.868Z,102120.70
2019-02-05T22:16:21.095Z,102125.89
2019-02-05T22:21:26.915Z,102123.05
2019-02-05T22:26:35.209Z,102119.33
2019-02-05T22:31:41.769Z,102122.16
2019-02-05T22:36:48.416Z,102120.58
2019-02-05T22:41:54.096Z,102118.10
2019-02-05T22:47:00.618Z,102113.16
2019-02-05T22:52:06.635Z,102119.48
2019-02-05T22:57:12.495Z,102119.33
2019-02-05T23:02:19.354Z,102126.55
2019-02-05T23:07:27.498Z,102124.36
2019-02-05T23:12:35.406Z,102111.72
2019-02-05T23:17:42.105Z,102122.26
2019-02-05T23:22:49.608Z,102118.27
2019-02-05T23:27:56.192Z,102118.72
2019-02-05T23:33:02.197Z,102118.71
2019-02-05T23:38:10.225Z,102121.08
2019-02-05T23:43:16.468Z,102123.44
2019-02-05T23:48:23.016Z,102129.91
2019-02-05T23:53:29.465Z,102125.89
2019-02-05T23:58:35.624Z,102127.83
